Terminal Aerodrome Forecast
Issued by NWS

Home | Current Version | Previous Version | Text Only | Print | Product List | Glossary On
Versions: 1 2 3 4 5 6 7 8 9 10 11 12 13 14 15 16 17 18 19 20 21 22 23 24 25 26 27 28
000
FTUS45 KGJT 250525
TAFVEL
TAF
KVEL 250525Z 2506/2606 11010G20KT P6SM VCTS SCT110CB BKN180
     FM250700 28006KT P6SM FEW120 SCT180
     FM251500 19006KT P6SM SCT100 BKN180
     FM252000 24010G20KT P6SM SCT100 BKN150
     FM260200 27005KT P6SM SCT140=

USA.gov is the U.S. government's official web portal to all federal, state and local government web resources and services.